Fort Davis, TX

8:57 AM CDT on September 19, 2014 (GMT -0500)
RAWS FORT DAVIS TX US | Change Station
CLOSE
Current Station
Personal Weather Station
Location: Fort Davis, TX
Elevation: 4764 ft
Nearby Weather Stations

Elev 4764 ft 30.60 °N, 103.89 °W | Updated 54 minutes ago

Rain
Rain
66 °F
Feels Like 66 °F
N
4
Wind Variable Wind from SW
Gusts 11.0 mph

Today
High -- | Low -- °F
--% Chance of Precip.
Yesterday
High -- | Low -- °F
Precip. -- in
7:42 AM 7:55 PM
Waning Crescent, 19% visible
Pressure 30.08 in
Visibility 10.0 miles
Clouds Overcast 4800 ft
Dew Point 64 °F
Humidity 94%
Rainfall 0.29 in
Snow Depth Not available.
UV 0 out of 12
Pollen 5.40 out of 12
Air Quality Not available.
Flu Activity Not available.
METAR KMRF 191315Z AUTO 17005KT 10SM OVC048 18/18 A3008 RMK AO1

More Conditions Fewer Conditions

Pressure 30.08 in
Visibility 10.0 miles
Clouds Overcast 4800 ft
Dew Point 64 °F
Humidity 94%
Rainfall 0.29 in
Snow Depth Not available.
UV 0 out of 12
Pollen 5.40 out of 12
Air Quality Not available.
Flu Activity Not available.
METAR KMRF 191315Z AUTO 17005KT 10SM OVC048 18/18 A3008 RMK AO1

More Conditions Fewer Conditions

10-Day Weather Forecast

Almanac

Astronomy

Sep. 19, 2014 Rise Set
Actual Time 7:42 AM CDT 7:55 PM CDT
Civil Twilight 7:18 AM CDT 8:19 PM CDT
Nautical Twilight 6:50 AM CDT 8:47 PM CDT
Astronomical Twilight 6:21 AM CDT 9:16 PM CDT
Moon 3:43 AM CDT 5:13 PM CDT
Length of Visible Light 13h 01m
Length of Day
12h 13m
Tomorrow will be 1m 50s shorter.
Waning Crescent, 19% of the Moon is Illuminated
Today
Waning Crescent
Sep 24
New
Oct 1
First Quarter
Oct 8
Full
Oct 15
Last Quarter

Today's Extremes

State Highs State Lows

Community

WunderPhotos

Upload Photos

1,754,608 photos uploaded!

WunderBlogs® & News

Nearby

Snow Depth

Station Depth Elevation
No new snow has been reported.

Earthquake Activity

City Distance Mag. Time & Date
No recent earthquake activity has been reported nearby.
Minimum magnitude displayed is 2.5.

Coastal Water Temperatures

Place Temperature
No Stations Reporting

Nearby Weather Stations